createdAt,value
2023-05-20T00:01:11.827Z,43.11
2023-05-20T00:04:15.891Z,42.70
2023-05-20T00:07:21.932Z,42.72
2023-05-20T00:10:25.062Z,41.96
2023-05-20T00:13:28.543Z,41.94
2023-05-20T00:16:31.926Z,41.67
2023-05-20T00:19:35.362Z,40.71
2023-05-20T00:22:39.033Z,40.63
2023-05-20T00:25:43.161Z,40.32
2023-05-20T00:28:46.895Z,39.57
2023-05-20T00:31:50.939Z,39.05
2023-05-20T00:35:01.706Z,37.05
2023-05-20T00:38:05.526Z,37.14
2023-05-20T00:41:09.222Z,36.76
2023-05-20T00:44:13.293Z,36.94
2023-05-20T00:47:18.818Z,35.31
2023-05-20T00:50:23.552Z,35.50
2023-05-20T00:53:27.546Z,35.48
2023-05-20T00:56:31.742Z,33.69
2023-05-20T00:59:37.291Z,33.12
2023-05-20T01:02:41.583Z,33.03
2023-05-20T01:05:45.627Z,32.42
2023-05-20T01:08:49.727Z,32.48
2023-05-20T01:12:37.859Z,32.60
2023-05-20T01:15:42.894Z,31.98
2023-05-20T01:18:49.061Z,32.27
2023-05-20T01:21:55.278Z,31.31
2023-05-20T01:24:58.465Z,31.58
2023-05-20T01:28:03.102Z,31.63
2023-05-20T01:31:12.710Z,31.61
2023-05-20T01:34:16.909Z,31.24
2023-05-20T01:37:22.777Z,31.27
2023-05-20T01:40:28.394Z,31.92
2023-05-20T01:43:32.196Z,30.98
2023-05-20T01:46:35.950Z,30.82
2023-05-20T01:49:39.717Z,30.66
2023-05-20T01:52:43.194Z,29.77
2023-05-20T01:55:46.641Z,29.27
2023-05-20T01:58:50.565Z,29.05
2023-05-20T02:01:53.784Z,28.19
2023-05-20T02:04:56.879Z,28.55
2023-05-20T02:08:00.323Z,27.78
2023-05-20T02:11:03.907Z,27.58
2023-05-20T02:14:07.108Z,27.57
2023-05-20T02:17:10.328Z,27.23
2023-05-20T02:20:14.478Z,27.32
2023-05-20T02:23:18.032Z,26.87
2023-05-20T02:26:21.973Z,26.79
2023-05-20T02:29:26.620Z,26.79
2023-05-20T02:32:30.230Z,26.52
2023-05-20T02:35:34.698Z,26.53
2023-05-20T02:38:38.359Z,26.32
2023-05-20T02:41:42.753Z,26.11
2023-05-20T02:44:46.875Z,25.78
2023-05-20T02:47:50.944Z,25.87
2023-05-20T02:50:54.429Z,26.02
2023-05-20T02:53:58.430Z,25.52
2023-05-20T02:57:02.808Z,25.74
2023-05-20T03:00:08.751Z,25.18
2023-05-20T03:03:12.290Z,24.95
2023-05-20T03:06:16.386Z,25.53
2023-05-20T03:12:40.919Z,24.64
2023-05-20T03:15:46.209Z,24.93
2023-05-20T03:18:50.669Z,24.89
2023-05-20T03:21:53.676Z,25.24
2023-05-20T03:24:58.025Z,24.36
2023-05-20T03:28:01.543Z,23.80
2023-05-20T03:31:06.017Z,23.39
2023-05-20T03:34:10.586Z,23.07
2023-05-20T03:37:14.129Z,23.70
2023-05-20T03:40:17.494Z,23.97
2023-05-20T03:43:21.678Z,24.04
2023-05-20T03:46:26.869Z,24.15
2023-05-20T03:49:30.757Z,24.78
2023-05-20T03:52:33.767Z,25.12
2023-05-20T03:55:38.108Z,25.68
2023-05-20T03:58:41.592Z,25.92
2023-05-20T04:01:45.108Z,26.10
2023-05-20T04:04:48.642Z,26.22
2023-05-20T04:07:52.559Z,26.32
2023-05-20T04:10:58.916Z,25.70
2023-05-20T04:14:02.052Z,25.74
2023-05-20T04:17:06.829Z,25.34
2023-05-20T04:20:11.872Z,24.54
2023-05-20T04:23:16.057Z,24.26
2023-05-20T04:26:19.511Z,24.57
2023-05-20T04:29:24.031Z,24.19
2023-05-20T04:32:27.587Z,24.09
2023-05-20T04:35:32.034Z,24.07
2023-05-20T04:38:40.723Z,24.43
2023-05-20T04:41:44.748Z,24.50
2023-05-20T04:44:49.437Z,24.20
2023-05-20T04:47:53.905Z,23.51
2023-05-20T04:50:58.095Z,22.95
2023-05-20T04:54:01.878Z,23.55
2023-05-20T04:57:06.134Z,23.64
2023-05-20T05:00:13.745Z,23.22
2023-05-20T05:03:18.212Z,23.05
2023-05-20T05:06:21.939Z,23.40
2023-05-20T05:09:25.143Z,23.32
2023-05-20T05:12:29.375Z,22.44
2023-05-20T05:15:35.100Z,22.20
2023-05-20T05:18:39.524Z,22.08
2023-05-20T05:21:43.553Z,22.36
2023-05-20T05:24:47.382Z,22.10
2023-05-20T05:27:52.276Z,21.66
2023-05-20T05:30:57.317Z,21.11
2023-05-20T05:34:02.694Z,20.63
2023-05-20T05:37:06.873Z,20.68
2023-05-20T05:40:12.395Z,20.65
2023-05-20T05:43:16.330Z,20.44
2023-05-20T05:46:23.670Z,20.34
2023-05-20T05:49:27.122Z,19.61
2023-05-20T05:52:31.061Z,19.47
2023-05-20T05:55:35.062Z,19.36
2023-05-20T05:58:52.611Z,19.85
2023-05-20T06:01:56.725Z,20.21
2023-05-20T06:04:59.913Z,19.87
2023-05-20T06:08:03.392Z,20.05
2023-05-20T06:11:10.260Z,20.18
2023-05-20T06:18:14.984Z,20.21
2023-05-20T06:21:19.214Z,20.65
2023-05-20T06:24:25.350Z,20.33
2023-05-20T06:27:29.232Z,20.21
2023-05-20T06:30:33.534Z,19.68
2023-05-20T06:33:37.658Z,20.06
2023-05-20T06:36:47.457Z,18.48
2023-05-20T06:39:54.433Z,17.99
2023-05-20T06:42:58.343Z,18.21
2023-05-20T06:46:21.389Z,18.59
2023-05-20T06:49:31.159Z,18.04
2023-05-20T06:52:34.792Z,18.06
2023-05-20T06:55:39.483Z,18.79
2023-05-20T06:58:43.454Z,18.60
2023-05-20T07:01:47.813Z,17.83
2023-05-20T07:04:51.579Z,16.96
2023-05-20T07:07:56.018Z,17.42
2023-05-20T07:11:00.424Z,18.02
2023-05-20T07:14:21.248Z,17.77
2023-05-20T07:17:36.780Z,18.54
2023-05-20T07:20:41.541Z,19.89
2023-05-20T07:23:51.198Z,20.59
2023-05-20T07:26:54.274Z,20.81
2023-05-20T07:29:57.976Z,20.86
2023-05-20T07:33:01.607Z,20.72
2023-05-20T07:36:07.165Z,20.92
2023-05-20T07:39:14.384Z,20.77
2023-05-20T07:42:20.254Z,20.17
2023-05-20T07:45:26.889Z,20.15
2023-05-20T07:48:31.158Z,19.58
2023-05-20T07:51:35.341Z,19.37
2023-05-20T07:54:39.396Z,19.69
2023-05-20T07:57:44.925Z,18.70
2023-05-20T08:00:50.182Z,16.85
2023-05-20T08:03:54.798Z,15.93
2023-05-20T08:07:02.904Z,15.78
2023-05-20T08:10:29.717Z,16.63
2023-05-20T08:13:34.009Z,17.28
2023-05-20T08:16:38.504Z,17.66
2023-05-20T08:19:43.091Z,17.89
2023-05-20T08:22:49.853Z,18.23
2023-05-20T08:25:54.557Z,18.01
2023-05-20T08:29:00.310Z,17.49
2023-05-20T08:32:05.388Z,16.55
2023-05-20T08:35:10.958Z,15.98
2023-05-20T08:38:15.024Z,15.04
2023-05-20T08:41:18.735Z,14.01
2023-05-20T08:44:25.658Z,13.13
2023-05-20T08:47:29.642Z,13.01
2023-05-20T08:50:33.970Z,12.90
2023-05-20T08:53:37.949Z,13.41
2023-05-20T08:56:42.732Z,14.27
2023-05-20T08:59:47.876Z,14.72
2023-05-20T09:02:52.638Z,15.31
2023-05-20T09:06:08.193Z,14.90
2023-05-20T09:09:13.760Z,13.80
2023-05-20T09:12:17.688Z,12.63
2023-05-20T09:15:21.915Z,11.23
2023-05-20T09:18:27.330Z,11.84
2023-05-20T09:21:32.501Z,12.22
2023-05-20T09:24:36.853Z,12.07
2023-05-20T09:27:42.702Z,11.93
2023-05-20T09:30:49.573Z,11.21
2023-05-20T09:33:54.932Z,11.74
2023-05-20T09:37:00.132Z,11.44
2023-05-20T09:40:10.800Z,11.49
2023-05-20T09:43:14.934Z,11.38
2023-05-20T09:46:21.318Z,12.41
2023-05-20T09:49:26.029Z,13.33
2023-05-20T09:52:30.246Z,14.09
2023-05-20T09:55:34.952Z,13.15
2023-05-20T09:58:40.178Z,12.40
2023-05-20T10:01:43.289Z,13.22
2023-05-20T10:04:51.063Z,13.29
2023-05-20T10:08:19.384Z,12.12
2023-05-20T10:11:38.057Z,12.03
2023-05-20T10:15:08.972Z,11.34
2023-05-20T10:18:21.535Z,10.93
2023-05-20T10:21:26.128Z,10.60
2023-05-20T10:24:39.105Z,10.00
2023-05-20T10:27:49.304Z,9.76
2023-05-20T10:30:53.491Z,9.89
2023-05-20T10:34:00.388Z,10.02
2023-05-20T10:37:05.284Z,10.29
2023-05-20T10:40:14.570Z,10.17
2023-05-20T10:43:27.996Z,11.25
2023-05-20T10:46:48.310Z,12.19
2023-05-20T10:49:57.269Z,12.50
2023-05-20T10:53:15.670Z,12.68
2023-05-20T10:56:29.095Z,12.75
2023-05-20T10:59:38.606Z,13.22
2023-05-20T11:06:54.629Z,12.89
2023-05-20T11:09:59.267Z,13.28
2023-05-20T11:13:04.856Z,14.28
2023-05-20T11:16:09.203Z,14.71
2023-05-20T11:19:19.743Z,15.16
2023-05-20T11:22:23.700Z,15.59
2023-05-20T11:25:28.834Z,15.92
2023-05-20T11:28:33.770Z,16.30
2023-05-20T11:31:39.775Z,16.58
2023-05-20T11:34:43.250Z,16.96
2023-05-20T11:37:46.206Z,17.26
2023-05-20T11:40:55.528Z,17.68
2023-05-20T11:44:02.315Z,17.84
2023-05-20T11:47:06.426Z,18.30
2023-05-20T11:50:11.267Z,18.65
2023-05-20T11:53:19.925Z,20.38
2023-05-20T11:56:23.716Z,22.44
2023-05-20T11:59:28.681Z,23.24
2023-05-20T12:02:32.749Z,23.69
2023-05-20T12:05:36.499Z,24.16
2023-05-20T12:08:39.464Z,24.62
2023-05-20T12:11:42.816Z,24.85
2023-05-20T12:14:45.898Z,25.09
2023-05-20T12:17:53.974Z,25.32
2023-05-20T12:21:00.990Z,25.61
2023-05-20T12:24:07.404Z,25.79
2023-05-20T12:27:11.421Z,26.12
2023-05-20T12:30:20.294Z,26.07
2023-05-20T12:33:24.123Z,26.34
2023-05-20T12:36:28.486Z,26.26
2023-05-20T12:39:32.419Z,26.47
2023-05-20T12:42:40.310Z,26.47
2023-05-20T12:45:44.308Z,26.66
2023-05-20T12:48:48.849Z,26.69
2023-05-20T12:51:52.657Z,26.68
2023-05-20T12:54:57.577Z,26.83
2023-05-20T12:58:01.304Z,27.00
2023-05-20T13:01:05.015Z,27.14
2023-05-20T13:04:09.860Z,27.40
2023-05-20T13:07:16.308Z,27.87
2023-05-20T13:10:20.592Z,28.27
2023-05-20T13:13:25.530Z,28.57
2023-05-20T13:16:28.776Z,29.12
2023-05-20T13:23:19.087Z,29.95
2023-05-20T13:26:24.485Z,30.21
2023-05-20T13:29:28.579Z,30.46
2023-05-20T13:32:31.799Z,30.66
2023-05-20T13:35:35.395Z,31.03
2023-05-20T13:38:39.123Z,31.12
2023-05-20T13:41:42.730Z,31.40
2023-05-20T13:44:46.799Z,31.52
2023-05-20T13:47:51.499Z,31.55
2023-05-20T13:50:55.737Z,31.54
2023-05-20T13:54:00.016Z,31.83
2023-05-20T13:57:08.595Z,31.88
2023-05-20T14:00:13.201Z,31.98
2023-05-20T14:03:16.935Z,32.10
2023-05-20T14:06:20.354Z,31.87
2023-05-20T14:09:24.049Z,31.84
2023-05-20T14:12:27.933Z,31.85
2023-05-20T14:15:31.659Z,31.87
2023-05-20T14:18:34.772Z,31.91
2023-05-20T14:21:37.875Z,31.94
2023-05-20T14:24:41.583Z,31.94
2023-05-20T14:27:45.268Z,31.79
2023-05-20T14:30:48.909Z,32.26
2023-05-20T14:33:52.505Z,32.59
2023-05-20T14:36:56.340Z,32.51
2023-05-20T14:40:00.040Z,32.66
2023-05-20T14:43:03.978Z,32.83
2023-05-20T14:46:07.741Z,32.96
2023-05-20T14:49:11.784Z,32.96
2023-05-20T14:52:15.635Z,33.22
2023-05-20T14:55:20.081Z,33.27
2023-05-20T14:58:23.893Z,33.36
2023-05-20T15:01:28.120Z,33.37
2023-05-20T15:04:32.318Z,33.42
2023-05-20T15:07:36.490Z,33.47
2023-05-20T15:10:39.921Z,33.50
2023-05-20T15:13:44.825Z,33.61
2023-05-20T15:16:48.777Z,33.77
2023-05-20T15:19:51.925Z,33.51
2023-05-20T15:22:55.931Z,33.23
2023-05-20T15:25:59.887Z,33.33
2023-05-20T15:29:03.816Z,33.47
2023-05-20T15:32:07.668Z,33.55
2023-05-20T15:35:11.218Z,34.13
2023-05-20T15:38:15.652Z,34.19
2023-05-20T15:41:18.883Z,34.36
2023-05-20T15:44:22.956Z,34.52
2023-05-20T15:47:26.582Z,34.61
2023-05-20T15:50:30.991Z,34.67
2023-05-20T15:53:34.585Z,34.84
2023-05-20T15:56:38.125Z,34.85
2023-05-20T15:59:42.090Z,35.06
2023-05-20T16:02:45.288Z,35.20
2023-05-20T16:05:48.383Z,34.54
2023-05-20T16:08:52.934Z,34.70
2023-05-20T16:11:57.343Z,34.66
2023-05-20T16:15:00.568Z,34.70
2023-05-20T16:18:05.282Z,34.96
2023-05-20T16:21:09.071Z,35.18
2023-05-20T16:24:13.202Z,35.24
2023-05-20T16:27:18.060Z,35.67
2023-05-20T16:30:21.822Z,35.86
2023-05-20T16:33:25.603Z,35.81
2023-05-20T16:36:29.280Z,36.16
2023-05-20T16:39:33.289Z,35.49
2023-05-20T16:42:36.556Z,35.87
2023-05-20T16:45:39.982Z,35.63
2023-05-20T16:48:43.790Z,36.31
2023-05-20T16:51:48.234Z,36.34
2023-05-20T16:54:53.068Z,37.36
2023-05-20T16:57:57.200Z,35.96
2023-05-20T17:01:00.733Z,37.21
2023-05-20T17:04:04.785Z,37.14
2023-05-20T17:07:10.429Z,37.14
2023-05-20T17:10:14.425Z,36.84
2023-05-20T17:13:18.091Z,36.66
2023-05-20T17:16:22.219Z,36.90
2023-05-20T17:19:26.037Z,36.92
2023-05-20T17:22:29.796Z,36.96
2023-05-20T17:25:33.444Z,37.03
2023-05-20T17:28:37.417Z,37.25
2023-05-20T17:31:41.036Z,37.41
2023-05-20T17:34:44.665Z,37.48
2023-05-20T17:37:48.313Z,37.68
2023-05-20T17:40:51.256Z,37.94
2023-05-20T17:43:54.715Z,38.44
2023-05-20T17:46:58.451Z,38.49
2023-05-20T17:50:03.154Z,38.54
2023-05-20T17:53:07.040Z,38.62
2023-05-20T17:56:10.610Z,38.72
2023-05-20T17:59:14.755Z,38.79
2023-05-20T18:02:18.571Z,38.86
2023-05-20T18:05:22.662Z,39.11
2023-05-20T18:08:26.679Z,39.41
2023-05-20T18:11:32.337Z,39.77
2023-05-20T18:14:36.139Z,40.10
2023-05-20T18:17:40.442Z,40.60
2023-05-20T18:20:44.428Z,40.94
2023-05-20T18:23:47.534Z,41.12
2023-05-20T18:26:50.567Z,41.35
2023-05-20T18:29:54.801Z,41.60
2023-05-20T18:32:58.258Z,41.72
2023-05-20T18:36:01.864Z,41.91
2023-05-20T18:39:05.383Z,42.09
2023-05-20T18:42:08.433Z,42.34
2023-05-20T18:45:31.596Z,42.39
2023-05-20T18:48:35.233Z,42.52
2023-05-20T18:51:40.442Z,42.58
2023-05-20T18:54:43.938Z,42.86
2023-05-20T18:57:47.856Z,42.90
2023-05-20T19:00:51.695Z,43.18
2023-05-20T19:03:55.765Z,44.03
2023-05-20T19:06:59.682Z,43.95
2023-05-20T19:10:04.058Z,43.74
2023-05-20T19:13:08.213Z,43.67
2023-05-20T19:16:12.046Z,44.50
2023-05-20T19:19:15.789Z,44.93
2023-05-20T19:22:19.788Z,44.87
2023-05-20T19:25:23.317Z,45.19
2023-05-20T19:28:27.539Z,44.63
2023-05-20T19:31:31.043Z,44.91
2023-05-20T19:34:34.971Z,45.28
2023-05-20T19:37:38.047Z,45.48
2023-05-20T19:40:41.547Z,45.66
2023-05-20T19:43:45.220Z,46.36
2023-05-20T19:46:49.355Z,46.22
2023-05-20T19:49:52.244Z,46.02
2023-05-20T19:52:55.560Z,46.68
2023-05-20T19:55:58.961Z,45.47
2023-05-20T19:59:03.025Z,44.98
2023-05-20T20:02:07.401Z,44.89
2023-05-20T20:05:11.511Z,44.73
2023-05-20T20:08:15.113Z,44.21
2023-05-20T20:11:19.020Z,44.14
2023-05-20T20:14:22.823Z,44.36
2023-05-20T20:17:26.840Z,44.31
2023-05-20T20:20:30.437Z,44.50
2023-05-20T20:23:37.486Z,44.60
2023-05-20T20:26:41.324Z,44.91
2023-05-20T20:29:45.173Z,44.97
2023-05-20T20:32:48.800Z,45.15
2023-05-20T20:35:55.293Z,45.09
2023-05-20T20:39:07.036Z,45.15
2023-05-20T20:42:11.423Z,45.21
2023-05-20T20:45:15.610Z,46.31
2023-05-20T20:48:19.695Z,46.10
2023-05-20T20:51:23.261Z,45.91
2023-05-20T20:54:27.268Z,46.48
2023-05-20T20:57:32.637Z,46.41
2023-05-20T21:00:37.374Z,46.39
2023-05-20T21:03:41.372Z,45.92
2023-05-20T21:06:47.978Z,45.93
2023-05-20T21:09:55.417Z,46.11
2023-05-20T21:12:59.087Z,45.99
2023-05-20T21:16:02.578Z,45.44
2023-05-20T21:19:05.672Z,45.03
2023-05-20T21:22:08.704Z,45.72
2023-05-20T21:25:11.815Z,45.62
2023-05-20T21:28:15.676Z,45.23
2023-05-20T21:31:19.172Z,44.84
2023-05-20T21:34:22.238Z,44.81
2023-05-20T21:37:25.120Z,44.42
2023-05-20T21:40:28.680Z,44.67
2023-05-20T21:43:31.662Z,43.84
2023-05-20T21:46:35.192Z,43.66
2023-05-20T21:49:38.624Z,43.42
2023-05-20T21:52:42.957Z,43.57
2023-05-20T21:55:46.481Z,43.30
2023-05-20T21:58:50.167Z,43.03
2023-05-20T22:01:53.898Z,42.88
2023-05-20T22:04:58.226Z,42.61
2023-05-20T22:08:01.620Z,42.63
2023-05-20T22:11:08.777Z,42.47
2023-05-20T22:14:16.582Z,42.38
2023-05-20T22:17:20.985Z,42.11
2023-05-20T22:20:25.617Z,41.15
2023-05-20T22:23:29.889Z,41.96
2023-05-20T22:26:34.415Z,42.12
2023-05-20T22:29:38.789Z,41.92
2023-05-20T22:32:41.831Z,40.55
2023-05-20T22:35:45.380Z,40.01
2023-05-20T22:38:48.972Z,39.57
2023-05-20T22:41:53.016Z,39.91
2023-05-20T22:44:55.983Z,39.22
2023-05-20T22:48:00.111Z,38.45
2023-05-20T22:51:04.411Z,38.58
2023-05-20T22:54:08.329Z,38.79
2023-05-20T22:57:12.699Z,38.98
2023-05-20T23:00:16.385Z,39.24
2023-05-20T23:03:19.305Z,39.03
2023-05-20T23:06:23.166Z,38.13
2023-05-20T23:09:26.128Z,38.00
2023-05-20T23:12:29.166Z,37.42
2023-05-20T23:15:33.084Z,36.81
2023-05-20T23:18:37.129Z,37.19
2023-05-20T23:21:41.208Z,36.95
2023-05-20T23:24:45.212Z,36.81
2023-05-20T23:27:48.118Z,36.95
2023-05-20T23:30:51.894Z,36.88
2023-05-20T23:33:54.906Z,37.10
2023-05-20T23:36:58.719Z,37.08
2023-05-20T23:40:02.365Z,35.80
2023-05-20T23:43:05.637Z,35.39
2023-05-20T23:46:09.178Z,35.10
2023-05-20T23:49:13.944Z,35.60
2023-05-20T23:52:18.371Z,35.50
2023-05-20T23:55:22.219Z,36.48
2023-05-20T23:58:25.973Z,37.40
